Thor Magnhild — 9V2628 — position and weather

sailwx.info

Track history (hours):
 
Tides and Currents Weather Stations Pressure Air Temp Water Temp Dewpoint Dewpoint Depression Visibility Wind Speed Wind Dir Waves Ship Positions

Thor Magnhild

Last reported at 2017-Nov-20 00:30 UTC. Time now 2017-Nov-24 16:46 UTC.
Position S 23°57' W 046°19'.

Length 189 m; draft 10.3 m.

Type: Cargo ship. MMSI: 564415000.

Date/timePositionNaut miles runAvg speedWind from/ knotsBaromVisibWave heightAir tempDewpointWater temp
2017-Nov-20 00:30S 23°57' W 046°19'0 0.0
2017-Nov-20 00:00S 23°57' W 046°19'0 0.0
2017-Nov-19 23:31S 23°57' W 046°19'0 0.0
2017-Nov-19 23:00S 23°57' W 046°19'0 0.0
2017-Nov-19 22:31S 23°57' W 046°19'0 0.0
2017-Nov-19 22:00S 23°57' W 046°19'0 0.0
2017-Nov-19 21:31S 23°57' W 046°19'0 0.0
2017-Nov-19 21:01S 23°57' W 046°19'0 0.1
2017-Nov-19 20:31S 23°57' W 046°19'0 0.1
2017-Nov-19 20:00S 23°57' W 046°19'0 0.0
2017-Nov-19 19:31S 23°57' W 046°19'0 0.0
2017-Nov-19 19:01S 23°57' W 046°19'0 0.0
2017-Nov-19 18:31S 23°57' W 046°19'1 2.8
2017-Nov-19 18:01S 23°58' W 046°18'3 5.6
2017-Nov-19 17:30S 23°60' W 046°20'5 9.1
2017-Nov-19 17:01S 24°04' W 046°22'510.2
2017-Nov-19 16:30S 24°09' W 046°24'713.3
2017-Nov-19 16:01S 24°15' W 046°26'713.2
2017-Nov-19 15:31S 24°22' W 046°27'713.9
2017-Nov-19 15:01S 24°28' W 046°29'713.5
2017-Nov-19 14:31S 24°34' W 046°33'713.8
2017-Nov-19 14:00S 24°39' W 046°38'713.8
2017-Nov-19 13:31S 24°45' W 046°43'713.9
2017-Nov-19 12:59S 24°50' W 046°48'  
2017-Nov-15 22:36S 25°38' W 048°15'0 5.0
2017-Nov-15 22:30S 25°39' W 048°15'7 5.7
2017-Nov-15 21:16S 25°37' W 048°08'412.7
2017-Nov-15 20:57S 25°36' W 048°03'4 9.6
2017-Nov-15 20:30S 25°35' W 047°59'612.1
2017-Nov-15 20:01S 25°33' W 047°52'713.2
2017-Nov-15 19:31S 25°31' W 047°45'713.2
2017-Nov-15 18:57S 25°29' W 047°38'613.1
2017-Nov-15 18:31S 25°28' W 047°31'713.2
2017-Nov-15 18:01S 25°26' W 047°24'712.8
2017-Nov-15 17:29S 25°24' W 047°17'2 3.0
2017-Nov-15 16:45S 25°24' W 047°15'1 1.9
2017-Nov-15 16:19S 25°24' W 047°14'3 8.4
2017-Nov-15 15:57S 25°23' W 047°10'23 1.2
2017-Nov-14 20:02S 25°00' W 047°04'0 1.2
2017-Nov-14 19:59S 25°00' W 047°04'1 1.1
2017-Nov-14 19:26S 25°01' W 047°03'1 1.1
2017-Nov-14 18:56S 25°01' W 047°02'5 0.9
2017-Nov-14 13:23S 25°04' W 046°58'1 0.9
2017-Nov-14 12:29S 25°05' W 046°58'2 0.8
2017-Nov-14 10:11S 25°06' W 046°56'  
Track history (hours):
 
Tides and Currents Weather Stations Pressure Air Temp Water Temp Dewpoint Dewpoint Depression Visibility Wind Speed Wind Dir Waves Ship Positions

Thor Magnhild

Last reported at 2017-Nov-20 00:30 UTC. Time now 2017-Nov-24 16:46 UTC.
Position S 23°57' W 046°19'.

Length 189 m; draft 10.3 m.

Type: Cargo ship. MMSI: 564415000.

Date/timePositionNaut miles runAvg speedWind from/ knotsBaromVisibWave heightAir tempDewpointWater temp
2017-Nov-20 00:30S 23°57' W 046°19'0 0.0
2017-Nov-20 00:00S 23°57' W 046°19'0 0.0
2017-Nov-19 23:31S 23°57' W 046°19'0 0.0
2017-Nov-19 23:00S 23°57' W 046°19'0 0.0
2017-Nov-19 22:31S 23°57' W 046°19'0 0.0
2017-Nov-19 22:00S 23°57' W 046°19'0 0.0
2017-Nov-19 21:31S 23°57' W 046°19'0 0.0
2017-Nov-19 21:01S 23°57' W 046°19'0 0.1
2017-Nov-19 20:31S 23°57' W 046°19'0 0.1
2017-Nov-19 20:00S 23°57' W 046°19'0 0.0
2017-Nov-19 19:31S 23°57' W 046°19'0 0.0
2017-Nov-19 19:01S 23°57' W 046°19'0 0.0
2017-Nov-19 18:31S 23°57' W 046°19'1 2.8
2017-Nov-19 18:01S 23°58' W 046°18'3 5.6
2017-Nov-19 17:30S 23°60' W 046°20'5 9.1
2017-Nov-19 17:01S 24°04' W 046°22'510.2
2017-Nov-19 16:30S 24°09' W 046°24'713.3
2017-Nov-19 16:01S 24°15' W 046°26'713.2
2017-Nov-19 15:31S 24°22' W 046°27'713.9
2017-Nov-19 15:01S 24°28' W 046°29'713.5
2017-Nov-19 14:31S 24°34' W 046°33'713.8
2017-Nov-19 14:00S 24°39' W 046°38'713.8
2017-Nov-19 13:31S 24°45' W 046°43'713.9
2017-Nov-19 12:59S 24°50' W 046°48'  
2017-Nov-15 22:36S 25°38' W 048°15'0 5.0
2017-Nov-15 22:30S 25°39' W 048°15'7 5.7
2017-Nov-15 21:16S 25°37' W 048°08'412.7
2017-Nov-15 20:57S 25°36' W 048°03'4 9.6
2017-Nov-15 20:30S 25°35' W 047°59'612.1
2017-Nov-15 20:01S 25°33' W 047°52'713.2
2017-Nov-15 19:31S 25°31' W 047°45'713.2
2017-Nov-15 18:57S 25°29' W 047°38'613.1
2017-Nov-15 18:31S 25°28' W 047°31'713.2
2017-Nov-15 18:01S 25°26' W 047°24'712.8
2017-Nov-15 17:29S 25°24' W 047°17'2 3.0
2017-Nov-15 16:45S 25°24' W 047°15'1 1.9
2017-Nov-15 16:19S 25°24' W 047°14'3 8.4
2017-Nov-15 15:57S 25°23' W 047°10'23 1.2
2017-Nov-14 20:02S 25°00' W 047°04'0 1.2
2017-Nov-14 19:59S 25°00' W 047°04'1 1.1
2017-Nov-14 19:26S 25°01' W 047°03'1 1.1
2017-Nov-14 18:56S 25°01' W 047°02'5 0.9
2017-Nov-14 13:23S 25°04' W 046°58'1 0.9
2017-Nov-14 12:29S 25°05' W 046°58'2 0.8
2017-Nov-14 10:11S 25°06' W 046°56'  

Dump ship's entire track history